sensor_id;sensor_type;location;lat;lon;timestamp;P1;durP1;ratioP1;P2;durP2;ratioP2
33902;SDS011;20194;50.950;5.346;2024-01-25T00:01:29;68.65;;;9.40;;
33902;SDS011;20194;50.950;5.346;2024-01-25T00:03:54;71.45;;;10.30;;
33902;SDS011;20194;50.950;5.346;2024-01-25T00:06:20;55.65;;;8.57;;
33902;SDS011;20194;50.950;5.346;2024-01-25T00:08:46;69.78;;;9.77;;
33902;SDS011;20194;50.950;5.346;2024-01-25T00:11:12;60.33;;;9.35;;
33902;SDS011;20194;50.950;5.346;2024-01-25T00:13:37;59.53;;;8.65;;
33902;SDS011;20194;50.950;5.346;2024-01-25T00:16:04;61.17;;;8.73;;
33902;SDS011;20194;50.950;5.346;2024-01-25T00:18:30;61.67;;;11.63;;
33902;SDS011;20194;50.950;5.346;2024-01-25T00:20:56;63.80;;;10.20;;
33902;SDS011;20194;50.950;5.346;2024-01-25T00:23:21;74.47;;;11.45;;
33902;SDS011;20194;50.950;5.346;2024-01-25T00:25:47;72.88;;;9.07;;
33902;SDS011;20194;50.950;5.346;2024-01-25T00:28:13;71.70;;;9.35;;
33902;SDS011;20194;50.950;5.346;2024-01-25T00:30:39;73.60;;;10.30;;
33902;SDS011;20194;50.950;5.346;2024-01-25T00:33:05;73.07;;;10.15;;
33902;SDS011;20194;50.950;5.346;2024-01-25T00:35:30;60.47;;;8.13;;
33902;SDS011;20194;50.950;5.346;2024-01-25T00:37:56;78.45;;;9.85;;
33902;SDS011;20194;50.950;5.346;2024-01-25T00:40:22;72.80;;;8.82;;
33902;SDS011;20194;50.950;5.346;2024-01-25T00:42:48;65.38;;;10.05;;
33902;SDS011;20194;50.950;5.346;2024-01-25T00:45:18;68.85;;;8.13;;
33902;SDS011;20194;50.950;5.346;2024-01-25T00:47:44;64.85;;;9.40;;
33902;SDS011;20194;50.950;5.346;2024-01-25T00:50:11;67.90;;;10.48;;
33902;SDS011;20194;50.950;5.346;2024-01-25T00:52:37;65.88;;;8.95;;
33902;SDS011;20194;50.950;5.346;2024-01-25T00:55:04;66.20;;;10.05;;
33902;SDS011;20194;50.950;5.346;2024-01-25T00:57:30;51.55;;;9.25;;
33902;SDS011;20194;50.950;5.346;2024-01-25T00:59:56;61.60;;;9.18;;
33902;SDS011;20194;50.950;5.346;2024-01-25T01:02:23;77.25;;;10.63;;
33902;SDS011;20194;50.950;5.346;2024-01-25T01:04:51;67.85;;;9.85;;
33902;SDS011;20194;50.950;5.346;2024-01-25T01:07:16;82.05;;;10.95;;
33902;SDS011;20194;50.950;5.346;2024-01-25T01:09:42;80.05;;;10.77;;
33902;SDS011;20194;50.950;5.346;2024-01-25T01:12:08;68.78;;;9.30;;
33902;SDS011;20194;50.950;5.346;2024-01-25T01:14:34;61.95;;;9.65;;
33902;SDS011;20194;50.950;5.346;2024-01-25T01:16:59;76.05;;;10.23;;
33902;SDS011;20194;50.950;5.346;2024-01-25T01:19:26;50.40;;;8.35;;
33902;SDS011;20194;50.950;5.346;2024-01-25T01:21:51;74.05;;;9.93;;
33902;SDS011;20194;50.950;5.346;2024-01-25T01:24:17;58.22;;;9.10;;
33902;SDS011;20194;50.950;5.346;2024-01-25T01:26:43;63.17;;;9.20;;
33902;SDS011;20194;50.950;5.346;2024-01-25T01:29:09;65.13;;;10.70;;
33902;SDS011;20194;50.950;5.346;2024-01-25T01:31:35;66.50;;;9.20;;
33902;SDS011;20194;50.950;5.346;2024-01-25T01:34:00;64.47;;;8.77;;
33902;SDS011;20194;50.950;5.346;2024-01-25T01:36:27;75.97;;;9.40;;
33902;SDS011;20194;50.950;5.346;2024-01-25T01:38:52;49.70;;;7.13;;
33902;SDS011;20194;50.950;5.346;2024-01-25T01:41:18;63.67;;;9.95;;
33902;SDS011;20194;50.950;5.346;2024-01-25T01:43:43;60.88;;;9.85;;
33902;SDS011;20194;50.950;5.346;2024-01-25T01:46:10;53.42;;;8.70;;
33902;SDS011;20194;50.950;5.346;2024-01-25T01:48:42;77.35;;;9.23;;
33902;SDS011;20194;50.950;5.346;2024-01-25T01:51:08;88.72;;;11.43;;
33902;SDS011;20194;50.950;5.346;2024-01-25T01:53:35;77.03;;;10.13;;
33902;SDS011;20194;50.950;5.346;2024-01-25T01:56:01;60.70;;;10.20;;
33902;SDS011;20194;50.950;5.346;2024-01-25T01:58:27;74.72;;;8.65;;
33902;SDS011;20194;50.950;5.346;2024-01-25T02:00:55;68.75;;;10.48;;
33902;SDS011;20194;50.950;5.346;2024-01-25T02:03:22;66.43;;;8.63;;
33902;SDS011;20194;50.950;5.346;2024-01-25T02:05:47;58.80;;;7.80;;
33902;SDS011;20194;50.950;5.346;2024-01-25T02:08:13;70.45;;;10.32;;
33902;SDS011;20194;50.950;5.346;2024-01-25T02:10:40;45.78;;;7.97;;
33902;SDS011;20194;50.950;5.346;2024-01-25T02:13:05;59.60;;;8.40;;
33902;SDS011;20194;50.950;5.346;2024-01-25T02:15:32;52.92;;;8.00;;
33902;SDS011;20194;50.950;5.346;2024-01-25T02:17:57;64.72;;;8.98;;
33902;SDS011;20194;50.950;5.346;2024-01-25T02:20:24;53.95;;;7.65;;
33902;SDS011;20194;50.950;5.346;2024-01-25T02:22:50;61.35;;;9.38;;
33902;SDS011;20194;50.950;5.346;2024-01-25T02:25:16;55.75;;;8.55;;
33902;SDS011;20194;50.950;5.346;2024-01-25T02:27:41;67.90;;;9.82;;
33902;SDS011;20194;50.950;5.346;2024-01-25T02:30:07;68.90;;;8.27;;
33902;SDS011;20194;50.950;5.346;2024-01-25T02:32:33;70.25;;;9.40;;
33902;SDS011;20194;50.950;5.346;2024-01-25T02:34:59;56.95;;;8.90;;
33902;SDS011;20194;50.950;5.346;2024-01-25T02:37:25;64.72;;;9.88;;
33902;SDS011;20194;50.950;5.346;2024-01-25T02:39:51;53.25;;;7.68;;
33902;SDS011;20194;50.950;5.346;2024-01-25T02:42:18;57.28;;;8.32;;
33902;SDS011;20194;50.950;5.346;2024-01-25T02:44:44;52.55;;;9.73;;
33902;SDS011;20194;50.950;5.346;2024-01-25T02:47:09;65.93;;;8.55;;
33902;SDS011;20194;50.950;5.346;2024-01-25T02:49:35;56.53;;;8.68;;
33902;SDS011;20194;50.950;5.346;2024-01-25T02:52:01;65.75;;;10.10;;
33902;SDS011;20194;50.950;5.346;2024-01-25T02:54:27;49.47;;;7.32;;
33902;SDS011;20194;50.950;5.346;2024-01-25T02:56:53;55.05;;;7.93;;
33902;SDS011;20194;50.950;5.346;2024-01-25T02:59:19;61.25;;;8.43;;
33902;SDS011;20194;50.950;5.346;2024-01-25T03:01:45;50.72;;;7.18;;
33902;SDS011;20194;50.950;5.346;2024-01-25T03:04:11;56.47;;;7.00;;
33902;SDS011;20194;50.950;5.346;2024-01-25T03:06:37;51.00;;;7.32;;
33902;SDS011;20194;50.950;5.346;2024-01-25T03:09:02;52.13;;;7.90;;
33902;SDS011;20194;50.950;5.346;2024-01-25T03:11:31;61.95;;;8.35;;
33902;SDS011;20194;50.950;5.346;2024-01-25T03:13:57;57.10;;;7.50;;
33902;SDS011;20194;50.950;5.346;2024-01-25T03:16:22;41.90;;;7.13;;
33902;SDS011;20194;50.950;5.346;2024-01-25T03:18:48;48.53;;;7.47;;
33902;SDS011;20194;50.950;5.346;2024-01-25T03:21:14;47.80;;;7.93;;
33902;SDS011;20194;50.950;5.346;2024-01-25T03:23:40;48.63;;;8.00;;
33902;SDS011;20194;50.950;5.346;2024-01-25T03:26:05;48.42;;;7.05;;
33902;SDS011;20194;50.950;5.346;2024-01-25T03:28:31;45.72;;;7.07;;
33902;SDS011;20194;50.950;5.346;2024-01-25T03:30:59;42.78;;;6.82;;
33902;SDS011;20194;50.950;5.346;2024-01-25T03:33:25;48.60;;;7.53;;
33902;SDS011;20194;50.950;5.346;2024-01-25T03:35:52;45.75;;;7.30;;
33902;SDS011;20194;50.950;5.346;2024-01-25T03:38:18;38.55;;;7.63;;
33902;SDS011;20194;50.950;5.346;2024-01-25T03:40:43;55.08;;;6.50;;
33902;SDS011;20194;50.950;5.346;2024-01-25T03:43:09;48.45;;;7.90;;
33902;SDS011;20194;50.950;5.346;2024-01-25T03:45:35;58.08;;;7.88;;
33902;SDS011;20194;50.950;5.346;2024-01-25T03:48:01;46.15;;;6.60;;
33902;SDS011;20194;50.950;5.346;2024-01-25T03:50:26;48.60;;;6.78;;
33902;SDS011;20194;50.950;5.346;2024-01-25T03:52:52;49.30;;;7.90;;
33902;SDS011;20194;50.950;5.346;2024-01-25T03:55:18;44.85;;;6.25;;
33902;SDS011;20194;50.950;5.346;2024-01-25T03:57:44;48.80;;;8.25;;
33902;SDS011;20194;50.950;5.346;2024-01-25T04:00:10;54.25;;;7.28;;
33902;SDS011;20194;50.950;5.346;2024-01-25T04:02:36;44.53;;;6.82;;
33902;SDS011;20194;50.950;5.346;2024-01-25T04:05:02;48.78;;;7.18;;
33902;SDS011;20194;50.950;5.346;2024-01-25T04:07:28;40.10;;;7.72;;
33902;SDS011;20194;50.950;5.346;2024-01-25T04:09:54;50.13;;;7.25;;
33902;SDS011;20194;50.950;5.346;2024-01-25T04:12:20;46.80;;;7.50;;
33902;SDS011;20194;50.950;5.346;2024-01-25T04:14:46;54.78;;;9.88;;
33902;SDS011;20194;50.950;5.346;2024-01-25T04:17:12;61.38;;;7.38;;
33902;SDS011;20194;50.950;5.346;2024-01-25T04:19:37;51.75;;;6.85;;
33902;SDS011;20194;50.950;5.346;2024-01-25T04:22:03;48.88;;;7.25;;
33902;SDS011;20194;50.950;5.346;2024-01-25T04:24:29;61.63;;;9.55;;
33902;SDS011;20194;50.950;5.346;2024-01-25T04:26:54;37.25;;;6.85;;
33902;SDS011;20194;50.950;5.346;2024-01-25T04:29:20;63.47;;;8.25;;
33902;SDS011;20194;50.950;5.346;2024-01-25T04:31:46;53.95;;;8.00;;
33902;SDS011;20194;50.950;5.346;2024-01-25T04:34:13;57.63;;;9.13;;
33902;SDS011;20194;50.950;5.346;2024-01-25T04:36:41;54.25;;;7.63;;
33902;SDS011;20194;50.950;5.346;2024-01-25T04:39:07;54.75;;;8.35;;
33902;SDS011;20194;50.950;5.346;2024-01-25T04:41:33;58.50;;;8.98;;
33902;SDS011;20194;50.950;5.346;2024-01-25T04:43:58;45.95;;;7.68;;
33902;SDS011;20194;50.950;5.346;2024-01-25T04:46:24;66.38;;;8.88;;
33902;SDS011;20194;50.950;5.346;2024-01-25T04:48:50;66.50;;;8.57;;
33902;SDS011;20194;50.950;5.346;2024-01-25T04:51:16;63.72;;;8.00;;
33902;SDS011;20194;50.950;5.346;2024-01-25T04:53:42;54.28;;;8.70;;
33902;SDS011;20194;50.950;5.346;2024-01-25T04:56:08;64.85;;;9.35;;
33902;SDS011;20194;50.950;5.346;2024-01-25T04:58:34;61.70;;;8.65;;
33902;SDS011;20194;50.950;5.346;2024-01-25T05:01:00;63.08;;;9.25;;
33902;SDS011;20194;50.950;5.346;2024-01-25T05:03:25;59.20;;;8.85;;
33902;SDS011;20194;50.950;5.346;2024-01-25T05:05:51;73.75;;;10.60;;
33902;SDS011;20194;50.950;5.346;2024-01-25T05:08:17;57.42;;;8.80;;
33902;SDS011;20194;50.950;5.346;2024-01-25T05:10:43;53.22;;;7.65;;
33902;SDS011;20194;50.950;5.346;2024-01-25T05:13:08;55.10;;;8.82;;
33902;SDS011;20194;50.950;5.346;2024-01-25T05:15:34;58.97;;;7.45;;
33902;SDS011;20194;50.950;5.346;2024-01-25T05:18:01;62.72;;;9.57;;
33902;SDS011;20194;50.950;5.346;2024-01-25T05:20:27;60.35;;;7.82;;
33902;SDS011;20194;50.950;5.346;2024-01-25T05:22:57;59.75;;;10.43;;
33902;SDS011;20194;50.950;5.346;2024-01-25T05:25:23;61.45;;;8.23;;
33902;SDS011;20194;50.950;5.346;2024-01-25T05:27:51;62.10;;;8.35;;
33902;SDS011;20194;50.950;5.346;2024-01-25T05:30:17;67.55;;;8.70;;
33902;SDS011;20194;50.950;5.346;2024-01-25T05:32:43;67.63;;;8.73;;
33902;SDS011;20194;50.950;5.346;2024-01-25T05:35:09;64.60;;;8.52;;
33902;SDS011;20194;50.950;5.346;2024-01-25T05:37:35;68.85;;;8.98;;
33902;SDS011;20194;50.950;5.346;2024-01-25T05:40:01;69.45;;;8.60;;
33902;SDS011;20194;50.950;5.346;2024-01-25T05:42:26;69.10;;;9.07;;
33902;SDS011;20194;50.950;5.346;2024-01-25T05:44:52;60.30;;;8.68;;
33902;SDS011;20194;50.950;5.346;2024-01-25T05:47:18;49.63;;;7.78;;
33902;SDS011;20194;50.950;5.346;2024-01-25T05:49:44;52.97;;;8.82;;
33902;SDS011;20194;50.950;5.346;2024-01-25T05:52:09;54.22;;;7.60;;
33902;SDS011;20194;50.950;5.346;2024-01-25T05:54:35;55.95;;;8.10;;
33902;SDS011;20194;50.950;5.346;2024-01-25T05:57:01;70.40;;;9.15;;
33902;SDS011;20194;50.950;5.346;2024-01-25T05:59:27;48.80;;;7.43;;
33902;SDS011;20194;50.950;5.346;2024-01-25T06:01:52;62.75;;;8.45;;
33902;SDS011;20194;50.950;5.346;2024-01-25T06:04:18;51.83;;;9.30;;
33902;SDS011;20194;50.950;5.346;2024-01-25T06:06:44;52.75;;;7.63;;
33902;SDS011;20194;50.950;5.346;2024-01-25T06:09:09;62.85;;;8.73;;
33902;SDS011;20194;50.950;5.346;2024-01-25T06:11:35;63.67;;;9.18;;
33902;SDS011;20194;50.950;5.346;2024-01-25T06:14:01;56.55;;;9.65;;
33902;SDS011;20194;50.950;5.346;2024-01-25T06:16:27;54.85;;;7.82;;
33902;SDS011;20194;50.950;5.346;2024-01-25T06:18:53;55.38;;;7.68;;
33902;SDS011;20194;50.950;5.346;2024-01-25T06:21:19;57.38;;;8.45;;
33902;SDS011;20194;50.950;5.346;2024-01-25T06:23:44;50.53;;;7.50;;
33902;SDS011;20194;50.950;5.346;2024-01-25T06:26:10;58.63;;;8.65;;
33902;SDS011;20194;50.950;5.346;2024-01-25T06:28:35;55.72;;;8.45;;
33902;SDS011;20194;50.950;5.346;2024-01-25T06:31:01;55.70;;;9.35;;
33902;SDS011;20194;50.950;5.346;2024-01-25T06:33:27;46.72;;;8.43;;
33902;SDS011;20194;50.950;5.346;2024-01-25T06:35:53;60.95;;;8.40;;
33902;SDS011;20194;50.950;5.346;2024-01-25T06:38:19;47.17;;;7.28;;
33902;SDS011;20194;50.950;5.346;2024-01-25T06:40:45;54.03;;;8.40;;
33902;SDS011;20194;50.950;5.346;2024-01-25T06:43:11;74.18;;;10.27;;
33902;SDS011;20194;50.950;5.346;2024-01-25T06:45:37;53.28;;;8.02;;
33902;SDS011;20194;50.950;5.346;2024-01-25T06:48:05;65.68;;;8.30;;
33902;SDS011;20194;50.950;5.346;2024-01-25T06:50:34;54.45;;;8.98;;
33902;SDS011;20194;50.950;5.346;2024-01-25T06:53:00;65.20;;;8.93;;
33902;SDS011;20194;50.950;5.346;2024-01-25T06:55:26;61.65;;;9.60;;
33902;SDS011;20194;50.950;5.346;2024-01-25T06:57:52;69.07;;;9.93;;
33902;SDS011;20194;50.950;5.346;2024-01-25T07:00:17;65.10;;;9.68;;
33902;SDS011;20194;50.950;5.346;2024-01-25T07:02:45;53.78;;;8.45;;
33902;SDS011;20194;50.950;5.346;2024-01-25T07:05:11;53.47;;;7.40;;
33902;SDS011;20194;50.950;5.346;2024-01-25T07:07:37;54.78;;;9.05;;
33902;SDS011;20194;50.950;5.346;2024-01-25T07:10:04;67.93;;;9.75;;
33902;SDS011;20194;50.950;5.346;2024-01-25T07:12:33;65.85;;;10.65;;
33902;SDS011;20194;50.950;5.346;2024-01-25T07:14:59;66.78;;;8.63;;
33902;SDS011;20194;50.950;5.346;2024-01-25T07:17:25;69.05;;;9.50;;
33902;SDS011;20194;50.950;5.346;2024-01-25T07:19:50;84.88;;;9.23;;
33902;SDS011;20194;50.950;5.346;2024-01-25T07:22:16;61.45;;;9.63;;
33902;SDS011;20194;50.950;5.346;2024-01-25T07:24:43;64.68;;;9.70;;
33902;SDS011;20194;50.950;5.346;2024-01-25T07:27:09;58.88;;;8.38;;
33902;SDS011;20194;50.950;5.346;2024-01-25T07:29:35;62.40;;;8.93;;
33902;SDS011;20194;50.950;5.346;2024-01-25T07:32:01;62.55;;;8.65;;
33902;SDS011;20194;50.950;5.346;2024-01-25T07:34:28;61.97;;;9.55;;
33902;SDS011;20194;50.950;5.346;2024-01-25T07:36:54;48.17;;;8.82;;
33902;SDS011;20194;50.950;5.346;2024-01-25T07:39:20;62.05;;;11.05;;
33902;SDS011;20194;50.950;5.346;2024-01-25T07:41:45;71.30;;;9.27;;
33902;SDS011;20194;50.950;5.346;2024-01-25T07:44:12;73.93;;;10.00;;
33902;SDS011;20194;50.950;5.346;2024-01-25T07:46:38;57.40;;;11.20;;
33902;SDS011;20194;50.950;5.346;2024-01-25T07:49:04;62.47;;;8.77;;
33902;SDS011;20194;50.950;5.346;2024-01-25T07:51:30;68.50;;;10.27;;
33902;SDS011;20194;50.950;5.346;2024-01-25T07:53:56;57.97;;;8.70;;
33902;SDS011;20194;50.950;5.346;2024-01-25T07:56:22;62.13;;;8.88;;
33902;SDS011;20194;50.950;5.346;2024-01-25T07:58:48;73.43;;;11.77;;
33902;SDS011;20194;50.950;5.346;2024-01-25T08:01:17;60.42;;;8.82;;
33902;SDS011;20194;50.950;5.346;2024-01-25T08:03:43;65.03;;;11.10;;
33902;SDS011;20194;50.950;5.346;2024-01-25T08:06:08;66.82;;;10.57;;
33902;SDS011;20194;50.950;5.346;2024-01-25T08:08:34;67.45;;;11.80;;
33902;SDS011;20194;50.950;5.346;2024-01-25T08:10:59;62.38;;;9.63;;
33902;SDS011;20194;50.950;5.346;2024-01-25T08:13:25;67.75;;;9.80;;
33902;SDS011;20194;50.950;5.346;2024-01-25T08:15:53;49.28;;;8.73;;
33902;SDS011;20194;50.950;5.346;2024-01-25T08:18:19;57.58;;;9.10;;
33902;SDS011;20194;50.950;5.346;2024-01-25T08:20:47;50.97;;;9.07;;
33902;SDS011;20194;50.950;5.346;2024-01-25T08:23:13;57.22;;;10.25;;
33902;SDS011;20194;50.950;5.346;2024-01-25T08:25:39;65.60;;;11.30;;
33902;SDS011;20194;50.950;5.346;2024-01-25T08:28:05;60.83;;;11.65;;
33902;SDS011;20194;50.950;5.346;2024-01-25T08:30:31;48.03;;;9.25;;
33902;SDS011;20194;50.950;5.346;2024-01-25T08:32:57;56.55;;;10.80;;
33902;SDS011;20194;50.950;5.346;2024-01-25T08:35:23;53.10;;;8.75;;
33902;SDS011;20194;50.950;5.346;2024-01-25T08:37:49;45.83;;;8.70;;
33902;SDS011;20194;50.950;5.346;2024-01-25T08:40:15;60.15;;;10.73;;
33902;SDS011;20194;50.950;5.346;2024-01-25T08:42:40;65.70;;;10.85;;
33902;SDS011;20194;50.950;5.346;2024-01-25T08:45:06;69.80;;;9.60;;
33902;SDS011;20194;50.950;5.346;2024-01-25T08:47:34;64.80;;;11.73;;
33902;SDS011;20194;50.950;5.346;2024-01-25T08:50:00;65.70;;;12.57;;
33902;SDS011;20194;50.950;5.346;2024-01-25T08:52:26;59.80;;;11.15;;
33902;SDS011;20194;50.950;5.346;2024-01-25T08:54:52;59.28;;;12.55;;
33902;SDS011;20194;50.950;5.346;2024-01-25T08:57:18;57.13;;;13.00;;
33902;SDS011;20194;50.950;5.346;2024-01-25T08:59:44;63.70;;;12.18;;
33902;SDS011;20194;50.950;5.346;2024-01-25T09:02:09;60.17;;;15.20;;
33902;SDS011;20194;50.950;5.346;2024-01-25T09:04:35;62.33;;;14.90;;
33902;SDS011;20194;50.950;5.346;2024-01-25T09:07:01;53.13;;;14.02;;
33902;SDS011;20194;50.950;5.346;2024-01-25T09:09:27;65.97;;;15.25;;
33902;SDS011;20194;50.950;5.346;2024-01-25T09:11:52;79.28;;;16.33;;
33902;SDS011;20194;50.950;5.346;2024-01-25T09:14:19;78.03;;;16.67;;
33902;SDS011;20194;50.950;5.346;2024-01-25T09:16:45;76.00;;;16.50;;
33902;SDS011;20194;50.950;5.346;2024-01-25T09:19:10;79.35;;;17.77;;
33902;SDS011;20194;50.950;5.346;2024-01-25T09:21:39;55.88;;;15.13;;
33902;SDS011;20194;50.950;5.346;2024-01-25T09:24:05;65.13;;;16.48;;
33902;SDS011;20194;50.950;5.346;2024-01-25T09:26:32;64.50;;;18.02;;
33902;SDS011;20194;50.950;5.346;2024-01-25T09:28:58;59.60;;;17.27;;
33902;SDS011;20194;50.950;5.346;2024-01-25T09:31:23;60.80;;;17.27;;
33902;SDS011;20194;50.950;5.346;2024-01-25T09:33:49;93.82;;;18.75;;
33902;SDS011;20194;50.950;5.346;2024-01-25T09:36:16;62.80;;;17.73;;
33902;SDS011;20194;50.950;5.346;2024-01-25T09:38:42;56.30;;;16.25;;
33902;SDS011;20194;50.950;5.346;2024-01-25T09:41:07;70.93;;;18.63;;
33902;SDS011;20194;50.950;5.346;2024-01-25T09:43:33;74.03;;;21.00;;
33902;SDS011;20194;50.950;5.346;2024-01-25T09:46:00;64.63;;;19.08;;
33902;SDS011;20194;50.950;5.346;2024-01-25T09:48:26;76.88;;;20.05;;
33902;SDS011;20194;50.950;5.346;2024-01-25T09:50:52;65.88;;;19.15;;
33902;SDS011;20194;50.950;5.346;2024-01-25T09:53:21;82.55;;;21.00;;
33902;SDS011;20194;50.950;5.346;2024-01-25T09:58:39;84.47;;;22.83;;
33902;SDS011;20194;50.950;5.346;2024-01-25T10:01:12;90.53;;;22.33;;
33902;SDS011;20194;50.950;5.346;2024-01-25T10:03:39;73.80;;;20.45;;
33902;SDS011;20194;50.950;5.346;2024-01-25T10:06:07;77.25;;;24.13;;
33902;SDS011;20194;50.950;5.346;2024-01-25T10:08:33;102.15;;;24.92;;
33902;SDS011;20194;50.950;5.346;2024-01-25T10:10:59;88.03;;;24.50;;
33902;SDS011;20194;50.950;5.346;2024-01-25T10:13:26;88.97;;;24.17;;
33902;SDS011;20194;50.950;5.346;2024-01-25T10:15:53;90.65;;;25.38;;
33902;SDS011;20194;50.950;5.346;2024-01-25T10:18:19;95.82;;;25.17;;
33902;SDS011;20194;50.950;5.346;2024-01-25T10:20:47;83.32;;;24.75;;
33902;SDS011;20194;50.950;5.346;2024-01-25T10:23:12;83.78;;;23.20;;
33902;SDS011;20194;50.950;5.346;2024-01-25T10:25:38;93.65;;;24.05;;
33902;SDS011;20194;50.950;5.346;2024-01-25T10:28:04;86.88;;;22.63;;
33902;SDS011;20194;50.950;5.346;2024-01-25T10:30:34;99.85;;;26.73;;
33902;SDS011;20194;50.950;5.346;2024-01-25T10:33:01;86.47;;;23.45;;
33902;SDS011;20194;50.950;5.346;2024-01-25T10:35:30;83.63;;;23.55;;
33902;SDS011;20194;50.950;5.346;2024-01-25T10:37:57;76.97;;;22.23;;
33902;SDS011;20194;50.950;5.346;2024-01-25T10:40:23;95.10;;;24.67;;
33902;SDS011;20194;50.950;5.346;2024-01-25T10:42:49;78.40;;;24.55;;
33902;SDS011;20194;50.950;5.346;2024-01-25T10:45:15;89.82;;;23.85;;
33902;SDS011;20194;50.950;5.346;2024-01-25T10:47:41;67.15;;;21.20;;
33902;SDS011;20194;50.950;5.346;2024-01-25T10:50:07;76.32;;;23.75;;
33902;SDS011;20194;50.950;5.346;2024-01-25T10:52:34;72.03;;;20.10;;
33902;SDS011;20194;50.950;5.346;2024-01-25T10:55:01;80.60;;;22.17;;
33902;SDS011;20194;50.950;5.346;2024-01-25T10:57:36;83.85;;;22.02;;
33902;SDS011;20194;50.950;5.346;2024-01-25T11:00:09;89.13;;;22.17;;
33902;SDS011;20194;50.950;5.346;2024-01-25T11:02:36;93.72;;;21.52;;
33902;SDS011;20194;50.950;5.346;2024-01-25T11:05:06;77.70;;;21.27;;
33902;SDS011;20194;50.950;5.346;2024-01-25T11:07:43;69.57;;;20.55;;
33902;SDS011;20194;50.950;5.346;2024-01-25T11:10:13;89.07;;;23.83;;
33902;SDS011;20194;50.950;5.346;2024-01-25T11:12:50;90.55;;;25.15;;
33902;SDS011;20194;50.950;5.346;2024-01-25T11:15:22;74.63;;;21.95;;
33902;SDS011;20194;50.950;5.346;2024-01-25T11:17:57;85.40;;;22.40;;
33902;SDS011;20194;50.950;5.346;2024-01-25T11:20:24;62.70;;;19.92;;
33902;SDS011;20194;50.950;5.346;2024-01-25T11:23:00;82.10;;;23.05;;
33902;SDS011;20194;50.950;5.346;2024-01-25T11:25:28;76.40;;;20.20;;
33902;SDS011;20194;50.950;5.346;2024-01-25T11:27:55;83.53;;;22.60;;
33902;SDS011;20194;50.950;5.346;2024-01-25T11:30:21;82.95;;;23.77;;
33902;SDS011;20194;50.950;5.346;2024-01-25T11:32:47;86.65;;;29.02;;
33902;SDS011;20194;50.950;5.346;2024-01-25T11:35:14;85.82;;;24.00;;
33902;SDS011;20194;50.950;5.346;2024-01-25T11:37:44;83.55;;;21.77;;
33902;SDS011;20194;50.950;5.346;2024-01-25T11:40:13;76.25;;;21.80;;
33902;SDS011;20194;50.950;5.346;2024-01-25T11:42:40;75.72;;;19.75;;
33902;SDS011;20194;50.950;5.346;2024-01-25T11:45:08;74.35;;;21.30;;
33902;SDS011;20194;50.950;5.346;2024-01-25T11:47:36;98.65;;;26.13;;
33902;SDS011;20194;50.950;5.346;2024-01-25T11:50:02;89.20;;;20.50;;
33902;SDS011;20194;50.950;5.346;2024-01-25T11:52:32;75.72;;;20.20;;
33902;SDS011;20194;50.950;5.346;2024-01-25T11:55:02;70.80;;;17.73;;
33902;SDS011;20194;50.950;5.346;2024-01-25T11:57:32;136.50;;;45.10;;
33902;SDS011;20194;50.950;5.346;2024-01-25T12:00:02;135.40;;;44.80;;
33902;SDS011;20194;50.950;5.346;2024-01-25T12:02:29;93.30;;;24.17;;
33902;SDS011;20194;50.950;5.346;2024-01-25T12:04:56;70.63;;;20.52;;
33902;SDS011;20194;50.950;5.346;2024-01-25T12:07:22;66.57;;;18.60;;
33902;SDS011;20194;50.950;5.346;2024-01-25T12:09:58;83.22;;;19.48;;
33902;SDS011;20194;50.950;5.346;2024-01-25T12:12:27;75.93;;;17.40;;
33902;SDS011;20194;50.950;5.346;2024-01-25T12:15:00;74.78;;;15.68;;
33902;SDS011;20194;50.950;5.346;2024-01-25T12:17:28;60.50;;;16.15;;
33902;SDS011;20194;50.950;5.346;2024-01-25T12:19:58;83.72;;;16.63;;
33902;SDS011;20194;50.950;5.346;2024-01-25T12:22:28;70.72;;;13.80;;
33902;SDS011;20194;50.950;5.346;2024-01-25T12:24:55;58.97;;;13.55;;
33902;SDS011;20194;50.950;5.346;2024-01-25T12:27:21;76.22;;;13.85;;
33902;SDS011;20194;50.950;5.346;2024-01-25T12:29:49;49.28;;;12.35;;
33902;SDS011;20194;50.950;5.346;2024-01-25T12:32:19;62.78;;;11.93;;
33902;SDS011;20194;50.950;5.346;2024-01-25T12:34:57;65.57;;;12.93;;
33902;SDS011;20194;50.950;5.346;2024-01-25T12:37:25;52.00;;;11.60;;
33902;SDS011;20194;50.950;5.346;2024-01-25T12:39:52;59.75;;;11.77;;
33902;SDS011;20194;50.950;5.346;2024-01-25T12:42:19;65.70;;;11.80;;
33902;SDS011;20194;50.950;5.346;2024-01-25T12:44:45;62.45;;;11.73;;
33902;SDS011;20194;50.950;5.346;2024-01-25T12:47:12;60.53;;;11.13;;
33902;SDS011;20194;50.950;5.346;2024-01-25T12:49:41;64.22;;;12.27;;
33902;SDS011;20194;50.950;5.346;2024-01-25T12:52:11;50.13;;;11.25;;
33902;SDS011;20194;50.950;5.346;2024-01-25T12:54:39;66.70;;;15.60;;
33902;SDS011;20194;50.950;5.346;2024-01-25T12:57:05;65.97;;;12.43;;
33902;SDS011;20194;50.950;5.346;2024-01-25T12:59:31;61.85;;;12.75;;
33902;SDS011;20194;50.950;5.346;2024-01-25T13:02:01;65.25;;;10.45;;
33902;SDS011;20194;50.950;5.346;2024-01-25T13:04:27;60.45;;;12.10;;
33902;SDS011;20194;50.950;5.346;2024-01-25T13:06:53;59.58;;;10.45;;
33902;SDS011;20194;50.950;5.346;2024-01-25T13:09:20;60.50;;;10.65;;
33902;SDS011;20194;50.950;5.346;2024-01-25T13:11:46;53.30;;;9.18;;
33902;SDS011;20194;50.950;5.346;2024-01-25T13:14:12;51.60;;;9.20;;
33902;SDS011;20194;50.950;5.346;2024-01-25T13:16:38;52.00;;;9.32;;
33902;SDS011;20194;50.950;5.346;2024-01-25T13:19:04;53.22;;;11.30;;
33902;SDS011;20194;50.950;5.346;2024-01-25T13:21:29;60.75;;;10.52;;
33902;SDS011;20194;50.950;5.346;2024-01-25T13:23:56;61.90;;;11.43;;
33902;SDS011;20194;50.950;5.346;2024-01-25T13:26:22;47.63;;;8.75;;
33902;SDS011;20194;50.950;5.346;2024-01-25T13:28:47;57.95;;;10.18;;
33902;SDS011;20194;50.950;5.346;2024-01-25T13:31:13;57.53;;;10.65;;
33902;SDS011;20194;50.950;5.346;2024-01-25T13:33:39;61.22;;;12.68;;
33902;SDS011;20194;50.950;5.346;2024-01-25T13:36:05;58.10;;;10.98;;
33902;SDS011;20194;50.950;5.346;2024-01-25T13:38:34;47.35;;;9.05;;
33902;SDS011;20194;50.950;5.346;2024-01-25T13:41:00;54.70;;;10.40;;
33902;SDS011;20194;50.950;5.346;2024-01-25T13:43:25;62.20;;;10.20;;
33902;SDS011;20194;50.950;5.346;2024-01-25T13:45:51;47.25;;;8.10;;
33902;SDS011;20194;50.950;5.346;2024-01-25T13:48:17;44.55;;;8.48;;
33902;SDS011;20194;50.950;5.346;2024-01-25T13:50:44;40.67;;;8.63;;
33902;SDS011;20194;50.950;5.346;2024-01-25T13:53:09;41.55;;;7.60;;
33902;SDS011;20194;50.950;5.346;2024-01-25T13:55:35;43.92;;;7.53;;
33902;SDS011;20194;50.950;5.346;2024-01-25T13:58:01;47.28;;;9.10;;
33902;SDS011;20194;50.950;5.346;2024-01-25T14:00:27;36.25;;;9.10;;
33902;SDS011;20194;50.950;5.346;2024-01-25T14:02:53;42.38;;;7.05;;
33902;SDS011;20194;50.950;5.346;2024-01-25T14:05:19;33.83;;;7.95;;
33902;SDS011;20194;50.950;5.346;2024-01-25T14:07:45;41.38;;;7.68;;
33902;SDS011;20194;50.950;5.346;2024-01-25T14:10:10;35.58;;;6.80;;
33902;SDS011;20194;50.950;5.346;2024-01-25T14:12:36;28.55;;;6.60;;
33902;SDS011;20194;50.950;5.346;2024-01-25T14:15:02;39.22;;;6.95;;
33902;SDS011;20194;50.950;5.346;2024-01-25T14:17:29;35.47;;;6.88;;
33902;SDS011;20194;50.950;5.346;2024-01-25T14:19:54;35.55;;;6.78;;
33902;SDS011;20194;50.950;5.346;2024-01-25T14:22:20;25.55;;;5.85;;
33902;SDS011;20194;50.950;5.346;2024-01-25T14:24:46;22.80;;;5.70;;
33902;SDS011;20194;50.950;5.346;2024-01-25T14:27:12;31.45;;;5.30;;